Time;durP1;ratioP1;P1;durP2;ratioP2;P2;SDS_P1;SDS_P2;PMS_P1;PMS_P2;Temp;Humidity;BMP_temperature;BMP_pressure;BME280_temperature;BME280_humidity;BME280_pressure;Samples;Min_cycle;Max_cycle;Signal;HPM_P1;HPM_P2
2022/06/08 00:00:08;;;;;;;2.47;1.60;;;;;;;34.19;27.00;93721.19;5049909;28;20298;-67
2022/06/08 00:03:00;;;;;;;1.77;1.50;;;;;;;34.15;27.47;93724.16;5046602;28;20252;-67
2022/06/08 00:05:44;;;;;;;3.47;1.70;;;;;;;33.48;28.49;93728.41;5054329;28;20323;-67
2022/06/08 00:08:28;;;;;;;1.43;1.33;;;;;;;33.61;28.17;93723.78;5052207;28;20193;-67
2022/06/08 00:11:13;;;;;;;1.63;1.53;;;;;;;33.62;28.22;93719.41;5046776;28;20201;-67
2022/06/08 00:13:58;;;;;;;3.40;1.70;;;;;;;31.64;30.91;93723.84;5050582;28;20233;-66
2022/06/08 00:16:42;;;;;;;2.40;1.30;;;;;;;32.71;29.11;93715.91;5049757;28;20201;-66
2022/06/08 00:19:27;;;;;;;4.87;1.80;;;;;;;32.19;30.04;93714.47;5048172;28;20284;-67
2022/06/08 00:22:11;;;;;;;1.50;1.40;;;;;;;32.38;29.91;93717.84;5054325;28;20209;-66
2022/06/08 00:24:55;;;;;;;1.60;1.50;;;;;;;33.04;28.58;93713.19;5048157;28;20196;-67
2022/06/08 00:27:40;;;;;;;2.10;1.70;;;;;;;33.91;27.65;93702.84;5050820;28;20294;-67
2022/06/08 00:30:24;;;;;;;1.80;1.70;;;;;;;34.67;26.61;93705.56;5051902;28;20670;-66
2022/06/08 00:33:09;;;;;;;5.13;1.93;;;;;;;33.71;27.86;93703.25;5052146;28;20198;-67
2022/06/08 00:35:54;;;;;;;4.00;1.60;;;;;;;33.63;27.79;93691.78;5047880;28;20686;-67
2022/06/08 00:38:37;;;;;;;4.30;1.87;;;;;;;34.64;26.66;93695.44;5050466;28;20221;-67
2022/06/08 00:41:32;;;;;;;1.73;1.40;;;;;;;34.94;26.05;93702.03;5058400;28;20681;-67
2022/06/08 00:44:21;;;;;;;1.60;1.50;;;;;;;34.18;27.11;93694.28;5050000;28;20189;-66
2022/06/08 00:47:09;;;;;;;4.83;1.37;;;;;;;33.45;27.93;93683.44;5052525;28;20197;-67
2022/06/08 00:50:01;;;;;;;3.23;1.67;;;;;;;32.83;28.91;93689.59;5055657;28;20194;-67
2022/06/08 00:52:47;;;;;;;1.70;1.60;;;;;;;34.71;26.30;93687.31;5044495;28;20247;-67
2022/06/08 00:55:36;;;;;;;2.20;1.70;;;;;;;34.68;26.05;93683.72;5055075;28;20201;-66
2022/06/08 00:58:25;;;;;;;1.70;1.60;;;;;;;33.81;27.13;93694.34;5056043;28;20314;-66
2022/06/08 01:01:11;;;;;;;3.07;1.53;;;;;;;33.60;27.11;93693.28;5048677;28;20209;-67
2022/06/08 01:04:13;;;;;;;2.73;1.70;;;;;;;32.78;28.45;93681.69;5047609;28;20217;-67
2022/06/08 01:07:00;;;;;;;2.00;1.40;;;;;;;33.72;27.10;93675.63;5051163;28;20201;-67
2022/06/08 01:09:48;;;;;;;3.23;1.63;;;;;;;33.39;27.42;93675.56;5038588;28;20352;-67
2022/06/08 01:12:32;;;;;;;3.20;1.60;;;;;;;32.18;28.87;93660.84;5053200;28;20277;-67
2022/06/08 01:15:27;;;;;;;4.90;1.60;;;;;;;33.30;27.35;93663.38;5047870;28;20799;-67
2022/06/08 01:18:12;;;;;;;1.83;1.63;;;;;;;33.41;26.85;93663.16;5054260;28;20320;-67
2022/06/08 01:21:22;;;;;;;1.50;1.40;;;;;;;32.68;27.75;93667.34;5056411;28;20769;-67
2022/06/08 01:24:15;;;;;;;2.00;1.30;;;;;;;32.44;28.21;93657.56;5059639;28;20335;-66
2022/06/08 01:27:20;;;;;;;2.07;1.37;;;;;;;32.71;28.07;93660.06;5062892;28;20206;-66
2022/06/08 01:30:38;;;;;;;5.17;1.80;;;;;;;32.04;28.90;93658.84;5044111;28;20671;-66
2022/06/08 01:33:38;;;;;;;1.77;1.50;;;;;;;32.11;28.75;93651.50;5029185;28;20232;-67
2022/06/08 01:36:34;;;;;;;1.73;1.40;;;;;;;33.07;27.60;93647.81;5047956;28;20738;-66
2022/06/08 01:39:46;;;;;;;1.60;1.50;;;;;;;32.30;28.35;93643.28;5064365;28;20743;-67
2022/06/08 01:42:43;;;;;;;5.73;1.80;;;;;;;32.53;27.90;93653.03;5056650;28;20248;-66
2022/06/08 01:45:43;;;;;;;3.23;1.50;;;;;;;31.65;29.13;93638.38;5059061;28;20197;-68
2022/06/08 01:48:52;;;;;;;2.03;1.30;;;;;;;30.52;30.72;93639.53;5062108;28;20201;-66
2022/06/08 01:52:14;;;;;;;1.83;1.20;;;;;;;31.39;29.05;93623.47;5056045;28;21146;-66
2022/06/08 01:55:15;;;;;;;1.63;1.53;;;;;;;30.80;29.98;93624.81;5056054;28;20551;-66
2022/06/08 01:58:19;;;;;;;1.70;1.60;;;;;;;32.37;27.62;93633.00;5057345;28;20193;-66
2022/06/08 02:01:10;;;;;;;1.47;1.37;;;;;;;32.53;27.53;93626.94;5046866;28;20192;-66
2022/06/08 02:04:10;;;;;;;2.90;1.30;;;;;;;33.71;25.63;93616.06;5049688;28;20687;-66
2022/06/08 02:07:15;;;;;;;1.27;1.20;;;;;;;32.06;28.07;93618.25;5062483;28;20201;-66
2022/06/08 02:10:08;;;;;;;2.27;1.27;;;;;;;32.65;26.78;93610.81;5049541;28;20666;-66
2022/06/08 02:13:00;;;;;;;1.77;1.30;;;;;;;32.31;27.38;93615.72;5062595;28;20201;-66
2022/06/08 02:15:54;;;;;;;1.93;1.27;;;;;;;32.24;27.55;93614.38;5059038;28;20320;-66
2022/06/08 02:19:05;;;;;;;2.50;1.20;;;;;;;32.76;27.02;93612.09;5056378;28;20252;-66
2022/06/08 02:22:07;;;;;;;1.33;1.23;;;;;;;32.98;26.60;93613.84;5047986;28;20685;-66
2022/06/08 02:25:01;;;;;;;1.40;1.30;;;;;;;32.69;26.71;93605.66;5039377;28;20204;-66
2022/06/08 02:27:59;;;;;;;3.17;1.40;;;;;;;32.30;27.26;93608.47;5051544;28;20201;-66
2022/06/08 02:30:57;;;;;;;1.67;1.50;;;;;;;32.94;26.33;93600.16;5047726;28;20272;-66
2022/06/08 02:36:53;;;;;;;3.00;1.27;;;;;;;32.45;26.93;93600.97;5072319;28;20201;-66
2022/06/08 02:39:45;;;;;;;2.63;1.40;;;;;;;32.99;25.85;93601.50;5050203;28;20214;-66
2022/06/08 02:42:33;;;;;;;1.40;1.30;;;;;;;32.85;25.91;93604.66;5056928;28;20253;-66
2022/06/08 02:45:41;;;;;;;1.23;1.13;;;;;;;33.06;25.54;93599.91;5050434;28;20197;-66
2022/06/08 02:48:26;;;;;;;3.10;1.37;;;;;;;32.66;26.12;93598.47;5060822;28;20209;-66
2022/06/08 02:51:11;;;;;;;1.73;1.63;;;;;;;32.63;25.98;93602.84;5057764;28;20198;-67
2022/06/08 02:54:12;;;;;;;2.97;1.50;;;;;;;32.24;26.52;93602.75;5062081;28;20244;-66
2022/06/08 02:57:03;;;;;;;3.87;1.50;;;;;;;32.77;25.94;93599.00;5056311;28;21041;-66
2022/06/08 03:00:13;;;;;;;2.40;1.50;;;;;;;33.03;25.59;93606.50;5050101;28;20359;-66
2022/06/08 03:03:24;;;;;;;2.37;1.90;;;;;;;32.72;25.78;93600.53;5053531;28;20788;-66
2022/06/08 03:06:14;;;;;;;2.50;1.63;;;;;;;32.53;25.87;93595.03;5059670;28;20252;-66
2022/06/08 03:09:03;;;;;;;6.07;1.70;;;;;;;32.53;25.82;93600.81;5054678;28;20562;-66
2022/06/08 03:12:00;;;;;;;2.43;1.50;;;;;;;31.33;27.49;93598.22;5050737;28;20332;-65
2022/06/08 03:14:47;;;;;;;2.40;1.47;;;;;;;32.19;26.41;93597.78;5054673;28;20267;-65
2022/06/08 03:17:34;;;;;;;1.50;1.40;;;;;;;32.32;26.24;93599.75;5052371;28;20274;-66
2022/06/08 03:20:21;;;;;;;1.70;1.60;;;;;;;32.39;26.00;93595.28;5053526;28;20221;-65
2022/06/08 03:23:06;;;;;;;1.70;1.60;;;;;;;32.50;26.17;93595.81;5056041;28;20704;-65
2022/06/08 03:25:53;;;;;;;3.30;1.47;;;;;;;32.81;25.52;93598.94;5057187;28;20726;-66
2022/06/08 03:28:37;;;;;;;1.57;1.20;;;;;;;32.89;25.62;93599.50;5052957;28;20209;-66
2022/06/08 03:31:21;;;;;;;2.13;1.67;;;;;;;31.54;27.32;93599.38;5043978;28;20777;-65
2022/06/08 03:34:06;;;;;;;2.77;1.10;;;;;;;31.94;26.95;93603.19;5059485;28;20254;-66
2022/06/08 03:36:51;;;;;;;3.43;1.27;;;;;;;32.43;26.09;93603.91;5057999;28;20292;-66
2022/06/08 03:39:36;;;;;;;3.90;1.17;;;;;;;32.95;25.88;93606.66;5047763;28;20303;-67
2022/06/08 03:42:21;;;;;;;3.50;1.60;;;;;;;33.82;24.47;93608.59;5050921;28;20201;-66
2022/06/08 03:45:06;;;;;;;2.63;1.10;;;;;;;33.58;25.16;93609.78;5058783;28;20223;-66
2022/06/08 03:47:52;;;;;;;1.13;1.00;;;;;;;33.97;24.80;93606.78;5054997;28;20737;-66
2022/06/08 03:50:40;;;;;;;3.23;1.10;;;;;;;33.79;24.61;93603.56;5061893;28;20752;-66
2022/06/08 03:53:50;;;;;;;2.53;1.20;;;;;;;34.13;24.61;93600.56;5058643;28;20564;-66
2022/06/08 03:56:37;;;;;;;4.83;1.33;;;;;;;34.26;24.03;93609.03;5055561;28;20365;-66
2022/06/08 03:59:22;;;;;;;4.67;1.10;;;;;;;34.48;23.72;93615.06;5050957;28;20213;-66
2022/06/08 04:02:10;;;;;;;3.03;1.27;;;;;;;34.56;24.08;93614.16;5053881;28;20266;-66
2022/06/08 04:04:54;;;;;;;3.13;1.07;;;;;;;34.97;23.52;93613.13;5051487;28;20259;-66
2022/06/08 04:07:38;;;;;;;1.20;0.70;;;;;;;35.26;23.34;93605.06;5049941;28;20233;-66
2022/06/08 04:10:23;;;;;;;1.80;1.10;;;;;;;35.46;23.11;93606.72;5054696;28;20193;-67
2022/06/08 04:13:11;;;;;;;1.23;0.90;;;;;;;35.63;22.90;93614.22;5049158;28;20220;-67
2022/06/08 04:15:55;;;;;;;4.03;0.80;;;;;;;35.65;23.27;93599.59;5054785;28;20575;-66
2022/06/08 04:18:51;;;;;;;0.70;0.70;;;;;;;35.70;23.04;93600.22;5052270;28;20201;-66
2022/06/08 04:21:37;;;;;;;1.87;1.00;;;;;;;35.69;22.94;93596.56;5055198;28;20236;-66
2022/06/08 04:24:24;;;;;;;2.87;0.80;;;;;;;35.75;23.03;93584.00;5059215;28;20243;-66
2022/06/08 04:27:14;;;;;;;0.60;0.60;;;;;;;35.98;22.50;93581.16;5048899;28;21000;-66
2022/06/08 04:30:01;;;;;;;1.70;0.60;;;;;;;35.95;22.51;93588.53;5048824;28;20201;-66
2022/06/08 04:32:47;;;;;;;1.77;0.90;;;;;;;35.58;22.41;93592.50;5064239;28;20212;-66
2022/06/08 04:35:33;;;;;;;1.90;1.00;;;;;;;36.54;22.06;93584.47;5037482;28;20197;-67
2022/06/08 04:38:18;;;;;;;1.90;0.77;;;;;;;36.25;22.18;93575.94;5051982;28;20225;-66
2022/06/08 04:41:05;;;;;;;2.87;0.60;;;;;;;35.94;22.03;93581.25;5051482;28;20193;-67
2022/06/08 04:43:51;;;;;;;2.93;0.90;;;;;;;36.19;22.44;93579.03;5053307;28;20194;-66
2022/06/08 04:46:35;;;;;;;0.83;0.67;;;;;;;36.42;22.10;93582.66;5053352;28;20196;-66
2022/06/08 04:49:21;;;;;;;0.83;0.60;;;;;;;36.88;22.20;93586.25;5051162;28;20193;-66
2022/06/08 04:52:07;;;;;;;2.23;0.53;;;;;;;36.46;22.29;93573.78;5047203;28;20237;-66
2022/06/08 04:54:52;;;;;;;1.20;0.70;;;;;;;36.99;21.82;93586.63;5062454;28;20239;-66
2022/06/08 04:57:37;;;;;;;1.53;1.03;;;;;;;37.03;22.29;93582.88;5043867;28;20247;-66
2022/06/08 05:00:23;;;;;;;1.67;0.70;;;;;;;37.35;21.89;93581.00;5054765;28;20233;-66
2022/06/08 05:03:09;;;;;;;3.50;0.60;;;;;;;37.28;21.90;93575.38;5075117;28;20267;-66
2022/06/08 05:05:59;;;;;;;2.60;0.80;;;;;;;37.30;21.78;93579.72;5036556;28;20205;-66
2022/06/08 05:08:47;;;;;;;4.40;0.80;;;;;;;37.36;21.33;93576.59;5055930;28;20653;-66
2022/06/08 05:11:34;;;;;;;2.90;0.70;;;;;;;36.79;21.22;93572.72;5048110;28;20197;-66
2022/06/08 05:14:18;;;;;;;0.60;0.60;;;;;;;36.55;21.72;93579.34;5050220;28;20224;-66
2022/06/08 05:17:02;;;;;;;2.90;0.63;;;;;;;36.46;21.88;93573.06;5056504;28;20201;-66
2022/06/08 05:19:47;;;;;;;1.03;0.50;;;;;;;35.17;23.56;93577.63;5054929;28;20221;-66
2022/06/08 05:22:31;;;;;;;2.47;0.70;;;;;;;36.53;21.46;93564.84;5053537;28;20205;-65
2022/06/08 05:25:21;;;;;;;1.27;0.80;;;;;;;36.55;21.75;93561.81;5058508;28;20587;-66
2022/06/08 05:28:07;;;;;;;1.70;0.83;;;;;;;37.34;21.29;93559.13;5055821;28;20200;-66
2022/06/08 05:30:56;;;;;;;3.97;0.80;;;;;;;35.00;22.47;93553.38;5041404;28;20238;-66
2022/06/08 05:33:43;;;;;;;6.47;0.80;;;;;;;35.23;22.73;93551.28;5052700;28;20622;-66
2022/06/08 05:36:31;;;;;;;1.40;0.70;;;;;;;35.30;22.30;93543.78;5044929;28;20275;-66
2022/06/08 05:39:19;;;;;;;2.20;0.90;;;;;;;35.69;22.06;93557.97;5050493;28;20226;-66
2022/06/08 05:42:04;;;;;;;2.57;0.60;;;;;;;34.94;22.57;93545.47;5050190;28;20698;-66
2022/06/08 05:44:49;;;;;;;2.53;0.70;;;;;;;35.23;22.81;93552.00;5046938;28;20723;-66
2022/06/08 05:47:34;;;;;;;2.97;0.90;;;;;;;35.13;22.65;93542.78;5043477;28;20715;-66
2022/06/08 05:50:18;;;;;;;1.00;0.77;;;;;;;34.46;23.58;93553.28;5054980;28;20576;-66
2022/06/08 05:53:04;;;;;;;1.10;0.60;;;;;;;35.65;22.11;93552.94;5058223;28;20204;-66
2022/06/08 05:55:49;;;;;;;2.20;0.73;;;;;;;36.44;21.26;93552.69;5061124;28;20281;-66
2022/06/08 05:58:33;;;;;;;3.80;0.90;;;;;;;34.51;23.34;93557.50;5053463;28;20193;-66
2022/06/08 06:01:17;;;;;;;3.17;0.90;;;;;;;36.22;21.89;93557.06;5049504;28;21020;-66
2022/06/08 06:04:04;;;;;;;2.53;0.90;;;;;;;33.86;24.10;93555.44;5053395;28;20744;-66
2022/06/08 06:06:48;;;;;;;1.30;0.70;;;;;;;35.50;22.70;93560.69;5062361;28;20639;-66
2022/06/08 06:09:35;;;;;;;1.53;0.77;;;;;;;34.80;23.71;93555.34;5056330;28;20237;-66
2022/06/08 06:12:20;;;;;;;3.13;0.90;;;;;;;35.44;22.46;93543.38;5055302;28;20225;-66
2022/06/08 06:15:05;;;;;;;4.37;1.03;;;;;;;34.42;23.20;93550.47;5058256;28;20212;-66
2022/06/08 06:17:50;;;;;;;3.37;1.10;;;;;;;35.14;22.82;93544.22;5049625;28;20221;-66
2022/06/08 06:20:35;;;;;;;7.83;1.40;;;;;;;34.46;23.59;93541.63;5055140;28;20257;-66
2022/06/08 06:23:30;;;;;;;1.13;0.87;;;;;;;34.87;23.00;93539.09;5058484;28;20203;-66
2022/06/08 06:26:20;;;;;;;2.30;1.00;;;;;;;35.74;22.24;93541.75;5047559;28;20287;-66
2022/06/08 06:29:23;;;;;;;3.23;1.00;;;;;;;36.65;21.01;93533.03;5054803;28;20675;-66
2022/06/08 06:32:33;;;;;;;3.03;1.23;;;;;;;36.00;21.92;93525.66;5055017;28;20229;-66
2022/06/08 06:35:27;;;;;;;5.87;1.40;;;;;;;37.17;20.38;93527.56;5052652;28;20252;-66
2022/06/08 06:38:15;;;;;;;5.57;1.13;;;;;;;36.40;21.34;93523.66;5058771;28;20209;-66
2022/06/08 06:41:00;;;;;;;2.73;0.90;;;;;;;36.49;21.24;93534.25;5059808;28;20306;-66
2022/06/08 06:43:44;;;;;;;1.83;0.77;;;;;;;36.42;21.14;93527.19;5050652;28;20309;-66
2022/06/08 06:46:48;;;;;;;1.67;0.70;;;;;;;36.09;22.08;93521.00;5065868;28;20375;-66
2022/06/08 06:49:39;;;;;;;3.07;0.90;;;;;;;35.04;22.10;93524.84;5054912;28;20206;-66
2022/06/08 06:52:24;;;;;;;1.83;1.00;;;;;;;35.75;21.45;93524.97;5061112;28;20525;-66
2022/06/08 06:55:33;;;;;;;2.43;0.90;;;;;;;35.47;21.42;93526.53;5055482;28;20221;-67
2022/06/08 06:58:29;;;;;;;5.33;1.10;;;;;;;36.91;20.18;93531.41;5055577;28;20237;-66
2022/06/08 07:01:16;;;;;;;4.30;0.80;;;;;;;38.72;19.04;93528.84;5049285;28;20253;-66
2022/06/08 07:04:01;;;;;;;1.93;0.90;;;;;;;39.12;18.81;93531.56;5049282;28;20233;-66
2022/06/08 07:06:46;;;;;;;3.00;1.00;;;;;;;38.03;18.91;93531.66;5056716;28;20205;-66
2022/06/08 07:09:30;;;;;;;2.50;0.90;;;;;;;37.62;18.96;93525.94;5057569;28;20558;-66
2022/06/08 07:12:15;;;;;;;3.38;1.23;;;;;;;36.80;19.84;93527.41;5062035;28;20252;-66
2022/06/08 07:15:08;;;;;;;4.07;0.82;;;;;;;36.29;20.71;93525.50;5057646;28;20236;-66
2022/06/08 07:17:53;;;;;;;4.55;1.27;;;;;;;38.32;18.28;93524.66;5049884;28;20278;-66
2022/06/08 07:20:38;;;;;;;7.70;1.20;;;;;;;38.65;18.76;93527.66;5059231;28;20328;-66
2022/06/08 07:23:22;;;;;;;2.75;0.80;;;;;;;38.52;18.30;93523.13;5050234;28;20284;-66
2022/06/08 07:26:06;;;;;;;3.17;0.88;;;;;;;39.63;17.20;93521.91;5050361;28;20277;-67
2022/06/08 07:28:55;;;;;;;3.53;1.00;;;;;;;39.96;17.34;93524.06;5072410;28;20716;-67
2022/06/08 07:31:40;;;;;;;1.60;0.90;;;;;;;39.12;18.09;93519.84;5048231;28;20201;-66
2022/06/08 07:34:24;;;;;;;3.58;0.82;;;;;;;38.71;17.94;93515.69;5058215;28;20783;-67
2022/06/08 07:37:09;;;;;;;6.50;1.23;;;;;;;39.60;17.78;93517.66;5053545;28;20717;-67
2022/06/08 07:39:53;;;;;;;6.75;1.20;;;;;;;40.14;17.15;93504.16;5051129;28;20579;-67
2022/06/08 07:42:37;;;;;;;2.40;0.93;;;;;;;39.83;17.51;93505.59;5050973;28;20610;-67
2022/06/08 07:45:21;;;;;;;3.95;0.93;;;;;;;39.53;17.78;93507.72;5060147;28;20201;-66
2022/06/08 07:51:09;;;;;;;2.35;0.80;;;;;;;40.74;16.49;93488.69;5050451;28;20230;-67
2022/06/08 07:53:53;;;;;;;5.80;1.17;;;;;;;42.78;15.23;93496.75;5049972;28;20229;-66
2022/06/08 07:56:37;;;;;;;3.20;1.08;;;;;;;42.70;15.74;93497.91;5053066;28;20277;-67
2022/06/08 07:59:25;;;;;;;2.70;1.00;;;;;;;42.74;15.45;93492.50;5058563;28;20690;-67
2022/06/08 08:02:11;;;;;;;4.18;1.17;;;;;;;43.73;13.98;93488.69;5048176;28;20707;-66
2022/06/08 08:04:55;;;;;;;3.50;1.02;;;;;;;42.62;15.02;93487.28;5050756;28;20568;-67
2022/06/08 08:07:41;;;;;;;4.50;1.13;;;;;;;40.67;16.27;93476.56;5053853;28;20197;-66
2022/06/08 08:10:26;;;;;;;4.80;1.00;;;;;;;40.25;16.69;93472.78;5046001;28;20233;-66
2022/06/08 08:13:10;;;;;;;6.07;1.05;;;;;;;43.90;14.11;93489.09;5057768;28;20197;-66
2022/06/08 08:15:54;;;;;;;3.22;1.05;;;;;;;44.69;13.46;93481.00;5055232;28;20201;-67
2022/06/08 08:18:39;;;;;;;4.20;0.82;;;;;;;45.19;12.69;93484.34;5048801;28;20213;-67
2022/06/08 08:21:24;;;;;;;2.67;0.95;;;;;;;44.64;13.63;93479.84;5055884;28;20197;-67
2022/06/08 08:24:08;;;;;;;2.78;1.13;;;;;;;42.82;15.43;93472.91;5052209;28;20287;-66
2022/06/08 08:26:52;;;;;;;4.70;1.17;;;;;;;44.82;13.99;93474.28;5055079;28;20213;-67
2022/06/08 08:29:36;;;;;;;1.73;0.77;;;;;;;46.48;13.33;93469.16;5056188;28;20193;-67
2022/06/08 08:32:20;;;;;;;2.20;0.85;;;;;;;46.74;12.62;93462.84;5054796;28;20269;-66
2022/06/08 08:35:05;;;;;;;1.90;0.82;;;;;;;46.86;12.30;93461.91;5049046;28;20253;-67
2022/06/08 08:37:49;;;;;;;2.28;0.80;;;;;;;45.85;13.29;93461.94;5042035;28;20201;-67
2022/06/08 08:40:45;;;;;;;4.47;0.82;;;;;;;45.10;13.34;93467.16;5055412;28;20593;-67
2022/06/08 08:43:36;;;;;;;3.22;1.00;;;;;;;45.23;13.46;93455.19;5052240;28;20233;-67
2022/06/08 08:46:28;;;;;;;3.42;1.00;;;;;;;45.28;13.44;93456.31;5047110;28;20197;-67
2022/06/08 08:49:23;;;;;;;4.60;0.85;;;;;;;43.19;14.82;93445.59;5055028;28;20283;-67
2022/06/08 08:52:27;;;;;;;2.38;0.90;;;;;;;44.69;13.04;93444.81;5056814;28;20335;-67
2022/06/08 08:55:32;;;;;;;2.85;0.63;;;;;;;46.07;12.69;93450.00;5052841;28;20270;-67
2022/06/08 08:58:20;;;;;;;3.80;0.93;;;;;;;46.03;11.43;93444.38;5057195;28;20286;-67
2022/06/08 09:01:28;;;;;;;3.15;0.95;;;;;;;47.67;11.31;93443.78;5051995;28;20239;-64
2022/06/08 09:04:29;;;;;;;5.00;0.93;;;;;;;45.74;12.56;93436.81;5056194;28;20298;-65
2022/06/08 09:07:19;;;;;;;3.00;1.10;;;;;;;45.71;12.30;93438.50;5056543;28;20740;-65
2022/06/08 09:10:03;;;;;;;2.38;0.77;;;;;;;46.94;11.10;93426.44;5053321;28;20266;-65
2022/06/08 09:12:49;;;;;;;2.40;0.93;;;;;;;43.32;13.88;93419.72;5050737;28;20248;-65
2022/06/08 09:15:45;;;;;;;2.22;0.80;;;;;;;44.81;12.72;93414.47;5046244;28;20312;-65
2022/06/08 09:18:39;;;;;;;1.92;0.77;;;;;;;44.30;13.19;93414.91;5052716;28;20200;-64
2022/06/08 09:21:31;;;;;;;1.58;0.65;;;;;;;46.74;11.25;93412.41;5045739;28;20681;-65
2022/06/08 09:24:36;;;;;;;3.67;0.90;;;;;;;46.31;11.48;93403.75;5054181;28;20639;-63
2022/06/08 09:27:31;;;;;;;3.10;0.90;;;;;;;44.18;12.53;93403.88;5055737;28;20576;-65
2022/06/08 09:30:24;;;;;;;2.28;1.00;;;;;;;43.57;12.82;93400.50;5048563;28;20566;-65
2022/06/08 09:33:24;;;;;;;2.60;0.90;;;;;;;44.02;13.17;93393.09;5046283;28;20277;-64
2022/06/08 09:36:24;;;;;;;2.25;0.85;;;;;;;45.39;12.23;93394.16;5050098;28;20215;-66
2022/06/08 09:39:12;;;;;;;1.40;0.70;;;;;;;48.36;10.91;93403.22;5053897;28;20259;-65
2022/06/08 09:42:00;;;;;;;3.45;0.80;;;;;;;48.35;9.99;93389.22;5058910;28;20252;-66
2022/06/08 09:44:57;;;;;;;2.47;0.73;;;;;;;48.35;10.27;93395.88;5054738;28;20205;-65
2022/06/08 09:54:40;;;;;;;3.50;1.00;;;;;;;49.06;10.38;93380.28;5054836;28;20198;-66
2022/06/08 09:57:44;;;;;;;2.67;0.82;;;;;;;47.45;11.53;93378.66;5058118;28;20239;-67
2022/06/08 10:00:32;;;;;;;2.33;0.63;;;;;;;48.22;10.84;93366.47;5046555;28;20275;-65
2022/06/08 10:03:38;;;;;;;2.17;0.80;;;;;;;48.40;10.56;93363.56;5052127;28;20245;-65
2022/06/08 10:06:28;;;;;;;1.23;0.60;;;;;;;50.76;8.65;93362.06;5055836;28;20209;-66
2022/06/08 10:09:26;;;;;;;3.80;0.80;;;;;;;49.59;9.81;93365.19;5055418;28;20194;-66
2022/06/08 10:12:40;;;;;;;1.30;0.68;;;;;;;49.70;9.39;93353.78;5052033;28;20209;-65
2022/06/08 10:15:42;;;;;;;1.88;0.70;;;;;;;44.09;12.84;93332.09;5051536;28;20194;-66
2022/06/08 10:18:33;;;;;;;1.73;0.65;;;;;;;47.86;10.65;93345.69;5046810;28;20225;-69
2022/06/08 10:21:26;;;;;;;2.60;0.90;;;;;;;50.23;8.95;93352.03;5055108;28;20226;-67
2022/06/08 10:24:58;;;;;;;3.08;0.70;;;;;;;49.65;9.54;93349.06;5057837;28;20678;-65
2022/06/08 10:28:09;;;;;;;1.15;0.77;;;;;;;51.56;7.81;93344.75;5047197;28;20241;-66
2022/06/08 10:31:02;;;;;;;2.40;0.73;;;;;;;51.38;7.51;93337.53;5053550;28;20263;-66
2022/06/08 10:33:54;;;;;;;4.15;0.70;;;;;;;50.57;8.50;93345.19;5052037;28;20201;-66
2022/06/08 10:36:41;;;;;;;2.35;0.90;;;;;;;50.73;8.81;93337.72;5048913;28;20716;-66
2022/06/08 10:39:27;;;;;;;3.10;0.82;;;;;;;51.46;8.54;93339.75;5051819;28;20739;-66
2022/06/08 10:45:20;;;;;;;1.08;0.60;;;;;;;50.42;8.50;93336.13;5054274;28;20684;-66
2022/06/08 10:48:24;;;;;;;1.05;0.60;;;;;;;50.35;8.73;93336.00;5059176;28;20568;-66
2022/06/08 10:51:12;;;;;;;2.45;0.80;;;;;;;50.35;8.47;93329.34;5052221;28;20201;-66
2022/06/08 10:57:00;;;;;;;2.95;0.55;;;;;;;52.29;8.03;93318.91;5052802;28;20198;-66
2022/06/08 11:00:13;;;;;;;2.92;0.65;;;;;;;53.48;7.08;93312.66;5059202;28;20302;-66
2022/06/08 11:02:58;;;;;;;3.17;0.75;;;;;;;52.95;7.44;93307.75;5051916;28;20224;-66
2022/06/08 11:05:45;;;;;;;2.08;0.50;;;;;;;52.20;8.03;93297.41;5059258;28;20205;-66
2022/06/08 11:08:54;;;;;;;0.85;0.50;;;;;;;53.81;6.39;93303.25;5059314;28;20193;-67
2022/06/08 11:11:44;;;;;;;1.48;0.50;;;;;;;50.77;8.16;93292.56;5057381;28;20213;-66
2022/06/08 11:14:48;;;;;;;2.60;0.68;;;;;;;53.28;7.36;93290.81;5056784;28;20244;-67
2022/06/08 11:17:41;;;;;;;1.48;0.68;;;;;;;54.63;6.25;93292.84;5057755;28;20716;-68
2022/06/08 11:20:35;;;;;;;1.55;0.68;;;;;;;54.79;6.57;93273.03;5055173;28;20222;-67
2022/06/08 11:23:42;;;;;;;2.95;0.63;;;;;;;55.40;7.08;93290.25;5052326;28;20197;-67
2022/06/08 11:26:45;;;;;;;1.17;0.55;;;;;;;55.24;7.10;93290.47;5044726;28;20248;-67
2022/06/08 11:29:29;;;;;;;2.78;0.80;;;;;;;55.99;6.90;93275.88;5051511;28;20751;-67
2022/06/08 11:32:36;;;;;;;3.72;0.80;;;;;;;54.81;6.93;93279.53;5054917;28;20666;-67
2022/06/08 11:35:24;;;;;;;1.25;0.60;;;;;;;54.88;7.87;93276.50;5038621;28;20601;-67
2022/06/08 11:38:24;;;;;;;0.88;0.40;;;;;;;57.09;5.84;93277.97;5065862;28;20624;-67
2022/06/08 11:41:20;;;;;;;2.22;0.77;;;;;;;53.11;7.08;93267.13;5061832;28;20224;-69
2022/06/08 11:44:18;;;;;;;1.25;0.68;;;;;;;55.44;6.58;93253.72;5050384;28;20300;-67
2022/06/08 11:47:11;;;;;;;2.50;0.63;;;;;;;52.76;8.80;93252.75;5066651;28;20192;-67
2022/06/08 11:50:14;;;;;;;3.63;0.50;;;;;;;52.18;8.45;93243.78;5051333;28;20259;-69
2022/06/08 11:53:06;;;;;;;0.98;0.70;;;;;;;54.24;7.79;93251.34;5052621;28;20730;-67
2022/06/08 11:56:04;;;;;;;2.50;0.60;;;;;;;56.16;6.97;93256.63;5047783;28;20205;-71
2022/06/08 11:58:52;;;;;;;3.90;0.63;;;;;;;56.19;5.99;93248.03;5062369;28;20208;-71
2022/06/08 12:01:36;;;;;;;1.13;0.68;;;;;;;56.43;6.29;93245.16;5049944;28;20201;-72
2022/06/08 12:04:27;;;;;;;3.20;0.70;;;;;;;58.40;5.20;93242.22;5055825;28;20258;-70
2022/06/08 12:07:48;;;;;;;1.65;0.57;;;;;;;55.32;6.74;93231.03;5050481;28;20205;-71
2022/06/08 12:10:34;;;;;;;1.02;0.43;;;;;;;55.86;7.63;93221.75;5051802;28;20670;-70
2022/06/08 12:13:22;;;;;;;2.78;0.60;;;;;;;57.72;6.92;93228.09;5054311;28;20248;-70
2022/06/08 12:16:34;;;;;;;2.22;0.70;;;;;;;55.74;6.81;93220.19;5057229;28;20318;-70
2022/06/08 12:19:19;;;;;;;1.13;0.52;;;;;;;58.34;5.43;93228.53;5055239;28;20244;-71
2022/06/08 12:22:31;;;;;;;1.08;0.57;;;;;;;56.06;5.78;93211.97;5051159;28;20301;-70
2022/06/08 12:25:15;;;;;;;1.45;0.70;;;;;;;57.08;5.38;93219.34;5052397;28;20213;-71
2022/06/08 12:28:15;;;;;;;1.98;0.70;;;;;;;56.37;6.80;93212.78;5048115;28;20213;-71
2022/06/08 12:31:01;;;;;;;2.00;0.45;;;;;;;58.52;5.23;93216.50;5050923;28;20540;-72
2022/06/08 12:33:45;;;;;;;2.45;0.65;;;;;;;57.20;6.18;93205.81;5056521;28;20324;-71
2022/06/08 12:36:33;;;;;;;1.48;0.55;;;;;;;59.43;5.65;93217.47;5056745;28;20201;-71
2022/06/08 12:39:18;;;;;;;2.63;0.70;;;;;;;57.24;6.77;93198.59;5054343;28;20229;-71
2022/06/08 12:42:03;;;;;;;3.15;0.95;;;;;;;54.80;7.27;93196.38;5051516;28;20206;-71
2022/06/08 12:44:53;;;;;;;2.55;0.60;;;;;;;52.29;8.20;93182.03;5048178;28;20228;-68
2022/06/08 12:47:45;;;;;;;2.95;0.90;;;;;;;47.65;10.75;93176.66;5054631;28;20317;-67
2022/06/08 12:50:30;;;;;;;2.28;0.93;;;;;;;49.90;9.91;93181.41;5055968;28;20240;-69
2022/06/08 12:53:16;;;;;;;1.48;0.52;;;;;;;51.70;9.19;93184.28;5056683;28;20201;-69
2022/06/08 12:56:00;;;;;;;2.50;0.85;;;;;;;53.56;8.37;93182.94;5055297;28;20275;-67
2022/06/08 12:58:45;;;;;;;3.45;0.80;;;;;;;51.40;9.17;93172.34;5046242;28;20197;-68
2022/06/08 13:01:29;;;;;;;2.45;0.80;;;;;;;54.51;8.14;93186.16;5055315;28;20201;-67
2022/06/08 13:04:18;;;;;;;0.80;0.50;;;;;;;52.63;9.17;93174.81;5056480;28;20218;-68
2022/06/08 13:07:02;;;;;;;3.05;0.80;;;;;;;52.77;8.00;93175.63;5054804;28;20213;-68
2022/06/08 13:09:48;;;;;;;1.50;0.68;;;;;;;53.15;8.85;93173.91;5050461;28;20198;-69
2022/06/08 13:12:36;;;;;;;1.55;0.60;;;;;;;54.04;8.22;93173.25;5054102;28;20289;-69
2022/06/08 13:15:25;;;;;;;1.73;0.50;;;;;;;54.53;7.08;93176.91;5056330;28;20197;-68
2022/06/08 13:18:16;;;;;;;1.23;0.60;;;;;;;52.75;8.59;93178.81;5057109;28;20582;-68
2022/06/08 13:21:01;;;;;;;1.33;0.50;;;;;;;52.16;8.52;93166.25;5058502;28;20369;-68
2022/06/08 13:23:45;;;;;;;1.45;0.50;;;;;;;53.15;8.07;93171.59;5054108;28;20728;-68
2022/06/08 13:26:33;;;;;;;1.10;0.52;;;;;;;51.40;8.61;93160.41;5061293;28;20317;-69
2022/06/08 13:29:17;;;;;;;6.32;0.75;;;;;;;55.92;7.27;93163.91;5052639;28;20241;-70
2022/06/08 13:32:01;;;;;;;3.95;0.60;;;;;;;57.27;6.35;93167.28;5057274;28;20256;-71
2022/06/08 13:34:48;;;;;;;3.03;0.70;;;;;;;58.65;6.29;93161.94;5047878;28;20217;-69
2022/06/08 13:37:41;;;;;;;2.97;0.68;;;;;;;58.55;5.96;93160.25;5064528;28;20201;-69
2022/06/08 13:40:29;;;;;;;1.45;0.50;;;;;;;58.58;5.58;93161.38;5063954;28;20640;-70
2022/06/08 13:43:13;;;;;;;1.10;0.50;;;;;;;57.38;6.48;93158.34;5056928;28;20200;-72
2022/06/08 13:45:57;;;;;;;0.73;0.50;;;;;;;55.31;6.80;93145.53;5060400;28;20281;-72